Time;durP1;ratioP1;P1;durP2;ratioP2;P2;SDS_P1;SDS_P2;PMS_P1;PMS_P2;Temp;Humidity;BMP_temperature;BMP_pressure;BME280_temperature;BME280_humidity;BME280_pressure;Samples;Min_cycle;Max_cycle;Signal;HPM_P1;HPM_P2
2022/06/07 00:03:27;;;;;;;20.50;18.40;;;;;;;17.08;71.36;98512.58;434190;1267;99219;-42
2022/06/07 00:13:34;;;;;;;22.90;18.40;;;;;;;17.03;71.90;98510.52;433582;1267;108831;-41
2022/06/07 00:23:42;;;;;;;27.90;22.20;;;;;;;16.97;71.91;98502.58;434076;1268;99769;-41
2022/06/07 00:33:49;;;;;;;25.10;21.20;;;;;;;16.82;72.06;98493.84;434078;1267;111357;-41
2022/06/07 00:44:19;;;;;;;25.40;22.60;;;;;;;16.72;72.44;98487.94;434013;1267;107673;-42
2022/06/07 00:54:30;;;;;;;29.90;23.00;;;;;;;16.72;72.72;98479.71;433861;1267;99251;-42
2022/06/07 01:04:37;;;;;;;30.90;25.00;;;;;;;16.56;73.06;98473.83;433849;1267;107525;-43
2022/06/07 01:24:52;;;;;;;30.70;24.50;;;;;;;16.35;73.55;98462.30;434595;1260;112417;-45
2022/06/07 01:35:00;;;;;;;28.50;23.90;;;;;;;16.24;73.73;98447.54;433924;1268;109356;-40
2022/06/07 01:45:08;;;;;;;31.10;24.00;;;;;;;16.19;74.43;98434.44;433766;1268;98844;-41
2022/06/07 01:55:16;;;;;;;27.10;22.60;;;;;;;16.16;74.49;98433.80;433952;1267;108838;-41
2022/06/07 02:05:23;;;;;;;27.60;24.50;;;;;;;16.16;74.67;98434.17;433896;1268;98853;-44
2022/06/07 02:15:30;;;;;;;31.90;24.80;;;;;;;16.09;74.80;98431.15;433770;1267;112474;-43
2022/06/07 02:25:37;;;;;;;28.40;24.00;;;;;;;16.05;74.86;98425.86;434013;1267;108779;-42
2022/06/07 02:35:46;;;;;;;32.40;24.80;;;;;;;16.03;74.92;98417.44;433867;1267;99260;-42
2022/06/07 02:45:54;;;;;;;28.90;25.50;;;;;;;16.05;74.99;98410.98;433963;1267;108797;-41
2022/06/07 02:56:01;;;;;;;29.90;24.60;;;;;;;16.23;75.12;98404.27;433760;1267;98834;-45
2022/06/07 03:06:09;;;;;;;27.10;22.80;;;;;;;16.32;74.71;98405.10;434056;1267;112431;-42
2022/06/07 03:16:17;;;;;;;25.60;22.90;;;;;;;16.61;74.82;98405.52;434035;1267;108153;-42
2022/06/07 03:26:25;;;;;;;33.30;25.70;;;;;;;18.12;73.85;98399.95;434006;1267;99269;-41
2022/06/07 03:36:32;;;;;;;26.80;24.00;;;;;;;19.85;72.41;98404.91;434079;1267;108882;-42
2022/06/07 03:46:42;;;;;;;26.60;23.90;;;;;;;19.13;71.51;98405.92;434115;1267;99257;-44
2022/06/07 03:56:49;;;;;;;23.20;20.70;;;;;;;20.45;71.26;98408.66;433802;1267;112451;-43
2022/06/07 04:17:20;;;;;;;19.00;17.00;;;;;;;23.87;67.85;98415.39;434030;1267;99353;-45
2022/06/07 04:27:28;;;;;;;18.10;15.50;;;;;;;25.74;66.03;98417.86;434079;1267;108767;-42
2022/06/07 04:37:35;;;;;;;15.90;14.50;;;;;;;26.58;63.29;98419.61;433988;1267;99267;-41
2022/06/07 04:47:44;;;;;;;18.00;13.70;;;;;;;26.98;62.12;98413.49;434099;1267;111955;-42
2022/06/07 04:57:52;;;;;;;13.20;12.00;;;;;;;26.66;60.73;98417.85;433736;1267;108863;-46
2022/06/07 05:08:00;;;;;;;15.30;11.20;;;;;;;26.60;60.10;98416.52;433958;1267;99271;-42
2022/06/07 05:18:05;;;;;;;13.00;11.90;;;;;;;26.51;59.46;98416.55;433730;1267;108812;-43
2022/06/07 05:28:13;;;;;;;15.30;13.60;;;;;;;26.15;58.87;98415.19;433800;1267;99264;-43
2022/06/07 05:38:21;;;;;;;16.50;13.70;;;;;;;26.19;59.22;98414.16;433821;1267;112446;-44
2022/06/07 05:48:33;;;;;;;14.10;12.50;;;;;;;26.41;57.93;98417.40;433849;1267;108879;-41
2022/06/07 05:58:40;;;;;;;15.20;12.50;;;;;;;26.21;57.49;98414.94;433886;1267;99276;-41
2022/06/07 06:19:13;;;;;;;13.80;10.60;;;;;;;26.79;56.70;98410.04;433829;1266;99299;-42
2022/06/07 06:29:21;;;;;;;10.30;8.90;;;;;;;26.89;55.29;98404.55;433842;1267;110863;-43
2022/06/07 06:39:28;;;;;;;13.00;9.20;;;;;;;26.99;54.67;98404.92;433889;1267;108776;-41
2022/06/07 06:49:35;;;;;;;9.60;8.60;;;;;;;26.74;53.85;98389.98;433974;1267;99270;-42
2022/06/07 06:59:44;;;;;;;14.10;10.40;;;;;;;27.23;54.04;98377.23;433854;1267;108912;-42
2022/06/07 07:09:51;;;;;;;16.90;9.30;;;;;;;27.39;53.20;98383.52;433907;1267;99364;-44
2022/06/07 07:19:56;;;;;;;12.30;7.40;;;;;;;27.54;52.03;98376.70;433744;1267;112390;-43
2022/06/07 07:30:04;;;;;;;7.30;5.90;;;;;;;27.65;51.59;98380.86;433625;1266;109682;-43
2022/06/07 07:40:13;;;;;;;6.90;6.30;;;;;;;27.36;50.91;98384.05;433775;1266;98700;-41
2022/06/07 07:50:20;;;;;;;8.50;6.30;;;;;;;27.16;51.04;98386.87;433810;1267;107825;-42
2022/06/07 08:10:32;;;;;;;11.10;6.50;;;;;;;27.61;51.75;98383.33;433679;1267;112396;-46
2022/06/07 08:20:40;;;;;;;7.00;5.60;;;;;;;27.25;50.82;98389.95;433811;1267;108764;-45
2022/06/07 08:30:48;;;;;;;7.90;5.10;;;;;;;27.83;51.23;98393.08;433799;1267;99248;-42
2022/06/07 08:40:55;;;;;;;12.30;6.80;;;;;;;28.25;50.44;98382.95;433649;1267;107732;-42
2022/06/07 08:51:04;;;;;;;8.00;5.70;;;;;;;28.22;49.68;98371.84;433925;1267;99277;-42
2022/06/07 09:01:12;;;;;;;6.00;5.50;;;;;;;27.47;49.92;98370.70;433867;1265;111225;-43
2022/06/07 09:21:49;;;;;;;5.40;5.00;;;;;;;27.29;51.12;98353.44;433996;1267;99266;-45
2022/06/07 09:31:56;;;;;;;8.10;5.60;;;;;;;28.21;50.43;98351.23;433484;1267;296223;-42
2022/06/07 09:42:06;;;;;;;5.30;4.80;;;;;;;28.25;49.37;98340.42;433682;1267;98920;-41
2022/06/07 09:52:20;;;;;;;7.80;5.50;;;;;;;28.71;48.08;98328.30;433836;1266;112509;-46
2022/06/07 10:13:04;;;;;;;5.50;4.10;;;;;;;28.08;48.05;98306.36;433836;1267;99270;-41
2022/06/07 10:23:18;;;;;;;4.50;4.00;;;;;;;27.52;48.40;98305.88;433457;1269;108758;-42
2022/06/07 10:33:42;;;;;;;5.10;4.60;;;;;;;27.12;48.23;98297.52;433112;1270;99254;-41
2022/06/07 10:43:50;;;;;;;6.50;4.50;;;;;;;27.18;48.64;98293.04;432812;1270;110948;-42
2022/06/07 10:54:00;;;;;;;8.30;5.30;;;;;;;27.28;48.23;98280.65;432701;1270;108221;-43
2022/06/07 11:04:07;;;;;;;4.90;4.50;;;;;;;27.25;47.99;98269.65;432828;1270;99267;-43
2022/06/07 11:14:16;;;;;;;4.80;3.60;;;;;;;27.70;47.04;98251.24;432779;1270;108821;-41
2022/06/07 11:24:30;;;;;;;4.70;4.10;;;;;;;27.60;45.42;98254.33;432679;1270;99279;-41
2022/06/07 11:34:39;;;;;;;4.20;3.80;;;;;;;27.75;45.35;98250.96;432657;1271;112570;-43
2022/06/07 11:55:28;;;;;;;6.30;5.10;;;;;;;28.26;44.85;98233.14;432803;1270;99254;-41
2022/06/07 12:05:45;;;;;;;8.50;5.10;;;;;;;27.68;45.19;98230.63;432840;1270;107835;-40
2022/06/07 12:15:56;;;;;;;6.30;5.80;;;;;;;26.92;45.73;98222.16;432393;1271;99296;-44
2022/06/07 12:26:04;;;;;;;7.00;5.60;;;;;;;26.51;46.77;98222.95;432997;1270;112483;-41
2022/06/07 12:36:11;;;;;;;22.90;6.30;;;;;;;25.97;47.21;98215.28;432796;1270;108842;-41
2022/06/07 12:46:24;;;;;;;13.40;6.80;;;;;;;25.74;48.49;98217.29;432856;1270;99139;-41
2022/06/07 13:06:57;;;;;;;6.60;6.00;;;;;;;23.62;53.43;98218.52;432734;1270;99388;-41
2022/06/07 13:17:11;;;;;;;6.00;5.20;;;;;;;23.90;55.61;98206.72;432781;1270;111960;-43
2022/06/07 13:38:00;;;;;;;6.50;5.50;;;;;;;24.42;55.33;98182.95;431177;1274;99300;-41
2022/06/07 13:48:16;;;;;;;8.40;6.00;;;;;;;24.70;55.78;98177.20;431296;1274;109095;-41
2022/06/07 13:58:29;;;;;;;4.60;4.20;;;;;;;24.82;55.60;98183.10;431184;1274;99435;-44
2022/06/07 14:08:35;;;;;;;6.10;4.10;;;;;;;24.66;55.28;98187.75;432066;1270;112435;-43
2022/06/07 14:18:43;;;;;;;7.10;4.90;;;;;;;24.56;55.21;98185.92;432561;1271;108889;-44
2022/06/07 14:28:51;;;;;;;4.80;4.30;;;;;;;24.34;55.38;98173.94;432777;1270;99273;-42
2022/06/07 14:38:59;;;;;;;5.90;5.00;;;;;;;24.09;55.79;98156.69;432714;1270;108815;-42
2022/06/07 14:49:07;;;;;;;5.50;5.00;;;;;;;24.12;56.24;98144.40;432589;1270;99276;-40
2022/06/07 14:59:14;;;;;;;9.70;7.30;;;;;;;24.24;56.33;98132.71;432815;1270;112395;-41
2022/06/07 15:09:25;;;;;;;11.70;7.40;;;;;;;24.15;56.77;98132.63;432754;1269;108738;-40
2022/06/07 15:19:34;;;;;;;31.80;7.30;;;;;;;23.99;56.39;98136.17;432907;1270;99176;-45
2022/06/07 15:40:09;;;;;;;7.20;4.50;;;;;;;23.98;56.51;98152.20;433118;1268;98013;-41
2022/06/07 15:50:19;;;;;;;3.80;3.50;;;;;;;23.84;56.11;98155.66;433347;1269;111548;-39
2022/06/07 16:00:26;;;;;;;4.30;3.90;;;;;;;23.60;56.00;98151.35;433134;1270;108916;-39
2022/06/07 16:10:34;;;;;;;8.60;5.40;;;;;;;23.53;56.51;98140.11;433067;1270;99343;-40
2022/06/07 16:20:42;;;;;;;6.70;6.10;;;;;;;23.66;57.09;98131.84;433003;1269;108781;-43
2022/06/07 16:41:16;;;;;;;6.10;4.20;;;;;;;23.10;58.59;98146.55;433061;1269;112260;-41
2022/06/07 16:51:25;;;;;;;6.60;5.30;;;;;;;22.46;59.47;98169.89;433224;1269;108788;-44
2022/06/07 17:11:44;;;;;;;7.50;6.10;;;;;;;21.31;60.92;98182.40;432878;1269;106587;-42
2022/06/07 17:21:53;;;;;;;8.50;6.50;;;;;;;20.91;62.34;98202.46;432839;1270;98851;-47
2022/06/07 17:32:00;;;;;;;9.70;6.80;;;;;;;20.52;63.56;98200.70;433104;1270;112432;-42
2022/06/07 17:42:06;;;;;;;8.30;6.80;;;;;;;20.17;63.57;98200.67;433353;1270;107637;-41
2022/06/07 17:52:13;;;;;;;7.60;6.30;;;;;;;19.83;64.22;98215.09;433214;1269;98595;-46
2022/06/07 18:02:21;;;;;;;15.60;8.50;;;;;;;19.53;64.92;98237.11;433290;1270;109614;-42
2022/06/07 18:12:29;;;;;;;8.80;7.30;;;;;;;19.36;65.68;98307.83;433402;1269;99251;-42
2022/06/07 18:22:36;;;;;;;13.10;8.70;;;;;;;19.50;66.40;98327.92;433163;1270;112404;-40
2022/06/07 18:32:44;;;;;;;10.60;8.60;;;;;;;19.49;66.66;98293.14;433190;1270;108657;-44
2022/06/07 18:42:51;;;;;;;17.30;11.60;;;;;;;19.17;67.34;98288.30;433188;1269;98026;-40
2022/06/07 18:52:57;;;;;;;14.20;9.50;;;;;;;19.12;68.07;98294.34;433083;1269;108984;-41
2022/06/07 19:03:05;;;;;;;14.90;10.00;;;;;;;19.03;68.58;98311.38;433221;1270;99283;-46
2022/06/07 19:13:13;;;;;;;12.60;9.00;;;;;;;18.96;69.07;98321.98;433418;1269;112420;-40
2022/06/07 19:23:21;;;;;;;13.30;9.50;;;;;;;18.88;69.67;98335.77;433235;1270;107675;-42
2022/06/07 19:33:27;;;;;;;;;;;;;;;18.72;69.83;98330.91;433263;1270;98860;-42
2022/06/07 19:43:34;;;;;;;14.50;7.40;;;;;;;18.29;70.02;98314.80;433233;1269;108776;-44
2022/06/07 19:53:43;;;;;;;7.00;6.00;;;;;;;17.80;70.91;98294.88;433125;1270;99243;-40
2022/06/07 20:03:51;;;;;;;9.00;7.10;;;;;;;17.54;71.59;98272.80;433214;1269;112477;-42
2022/06/07 20:14:00;;;;;;;12.10;10.30;;;;;;;17.52;71.92;98261.11;433081;1271;107826;-42
2022/06/07 20:24:08;;;;;;;8.50;7.60;;;;;;;17.43;72.34;98265.35;433328;1270;98828;-41
2022/06/07 20:34:16;;;;;;;10.80;9.20;;;;;;;17.29;72.67;98265.61;433166;1270;108648;-40
2022/06/07 20:44:24;;;;;;;12.70;9.40;;;;;;;17.07;73.15;98270.46;432585;1271;99250;-40
2022/06/07 20:54:31;;;;;;;14.00;10.40;;;;;;;17.00;73.47;98275.31;432975;1269;112743;-40
2022/06/07 21:04:38;;;;;;;13.00;9.30;;;;;;;16.88;73.63;98273.39;432760;1270;107894;-41
2022/06/07 21:14:46;;;;;;;10.30;8.60;;;;;;;16.83;73.76;98268.58;432873;1270;99420;-41
2022/06/07 21:24:54;;;;;;;12.70;8.30;;;;;;;16.86;74.06;98275.44;432116;1269;510801;-43
2022/06/07 21:35:01;;;;;;;10.30;7.80;;;;;;;16.84;73.98;98280.42;432804;1271;99352;-41
2022/06/07 21:45:09;;;;;;;10.00;9.00;;;;;;;16.80;74.06;98289.20;432524;1270;112543;-45
2022/06/07 21:55:17;;;;;;;11.50;9.30;;;;;;;16.83;74.49;98285.18;432742;1269;109995;-41
2022/06/07 22:05:26;;;;;;;9.80;8.80;;;;;;;16.77;74.40;98289.86;432991;1269;98876;-41
2022/06/07 22:15:32;;;;;;;12.20;9.50;;;;;;;16.75;74.71;98298.46;432743;1271;109885;-40
2022/06/07 22:25:40;;;;;;;10.40;9.30;;;;;;;16.83;75.02;98282.40;432984;1269;99254;-42
2022/06/07 22:35:48;;;;;;;10.40;9.30;;;;;;;16.85;75.10;98265.45;432919;1270;111290;-41
2022/06/07 22:45:55;;;;;;;16.40;10.80;;;;;;;16.83;75.09;98260.36;433045;1270;108884;-40
2022/06/07 22:56:03;;;;;;;10.90;9.70;;;;;;;16.76;75.12;98251.63;432913;1269;99056;-40
2022/06/07 23:06:11;;;;;;;11.10;9.00;;;;;;;16.73;75.37;98249.90;432882;1270;107221;-41
2022/06/07 23:26:44;;;;;;;10.10;9.10;;;;;;;16.63;75.63;98217.44;433212;1269;112649;-41
2022/06/07 23:36:51;;;;;;;13.50;9.10;;;;;;;16.57;75.70;98202.70;432775;1270;108822;-41
2022/06/07 23:47:04;;;;;;;13.20;10.90;;;;;;;16.49;75.99;98192.75;433110;1270;99603;-43
2022/06/07 23:57:14;;;;;;;14.30;11.50;;;;;;;16.41;76.17;98208.09;432904;1270;108679;-40
